Time;durP1;ratioP1;P1;durP2;ratioP2;P2;SDS_P1;SDS_P2;PMS_P1;PMS_P2;Temp;Humidity;BMP_temperature;BMP_pressure;BME280_temperature;BME280_humidity;BME280_pressure;Samples;Min_cycle;Max_cycle;Signal;HPM_P1;HPM_P2
2021/11/09 00:00:42;;;;;;;4.43;2.15;;;;;;;;;;5118709;27;20394;-58
2021/11/09 00:03:09;;;;;;;4.03;2.73;;;;;;;;;;5121510;27;20034;-57
2021/11/09 00:05:45;;;;;;;3.25;2.13;;;;;;;;;;5130366;27;20022;-58
2021/11/09 00:08:16;;;;;;;3.42;1.73;;;;;;;;;;5112018;28;20051;-57
2021/11/09 00:10:43;;;;;;;4.63;2.45;;;;;;;;;;5117794;27;20047;-57
2021/11/09 00:13:09;;;;;;;4.30;2.45;;;;;;;;;;5123058;27;20023;-57
2021/11/09 00:15:35;;;;;;;4.25;2.33;;;;;;;;;;5112395;28;20011;-57
2021/11/09 00:18:02;;;;;;;3.80;2.28;;;;;;;;;;5111639;28;20032;-57
2021/11/09 00:20:30;;;;;;;5.80;2.25;;;;;;;;;;5112405;28;20036;-57
2021/11/09 00:22:56;;;;;;;5.05;2.03;;;;;;;;;;5122753;28;20019;-57
2021/11/09 00:25:24;;;;;;;8.40;2.70;;;;;;;;;;5121961;28;20015;-58
2021/11/09 00:27:50;;;;;;;5.45;2.40;;;;;;;;;;5113248;28;20033;-58
2021/11/09 00:30:17;;;;;;;3.40;1.95;;;;;;;;;;5116879;28;20035;-57
2021/11/09 00:32:43;;;;;;;3.83;2.63;;;;;;;;;;5117875;28;20027;-57
2021/11/09 00:35:10;;;;;;;3.40;2.00;;;;;;;;;;5111097;28;20592;-57
2021/11/09 00:37:36;;;;;;;4.13;2.25;;;;;;;;;;5113325;28;20081;-57
2021/11/09 00:40:03;;;;;;;4.95;2.05;;;;;;;;;;5112140;28;20023;-57
2021/11/09 00:42:29;;;;;;;3.08;2.00;;;;;;;;;;5114569;28;20091;-58
2021/11/09 00:44:55;;;;;;;3.58;2.00;;;;;;;;;;5117511;28;20019;-57
2021/11/09 00:47:22;;;;;;;4.70;2.30;;;;;;;;;;5112102;28;20131;-57
2021/11/09 00:49:48;;;;;;;2.33;1.63;;;;;;;;;;5111297;28;20034;-61
2021/11/09 00:52:15;;;;;;;5.32;2.40;;;;;;;;;;5123594;28;20027;-57
2021/11/09 00:54:41;;;;;;;3.58;1.85;;;;;;;;;;5119660;28;20050;-57
2021/11/09 00:57:07;;;;;;;6.03;2.40;;;;;;;;;;5131238;28;20026;-57
2021/11/09 00:59:33;;;;;;;6.00;2.50;;;;;;;;;;5132960;28;20046;-58
2021/11/09 01:01:59;;;;;;;4.68;2.50;;;;;;;;;;5119977;28;20019;-57
2021/11/09 01:04:27;;;;;;;3.88;2.17;;;;;;;;;;5114050;28;20023;-57
2021/11/09 01:06:53;;;;;;;6.03;2.20;;;;;;;;;;5116172;27;20351;-57
2021/11/09 01:09:19;;;;;;;3.28;2.33;;;;;;;;;;5115477;28;20468;-57
2021/11/09 01:11:46;;;;;;;2.75;1.73;;;;;;;;;;5115666;27;20067;-57
2021/11/09 01:14:12;;;;;;;3.53;2.40;;;;;;;;;;5119065;27;20047;-57
2021/11/09 01:16:39;;;;;;;3.70;1.90;;;;;;;;;;5115730;28;20024;-58
2021/11/09 01:19:07;;;;;;;2.78;1.95;;;;;;;;;;5115027;28;20020;-57
2021/11/09 01:21:33;;;;;;;3.67;2.08;;;;;;;;;;5117653;27;20007;-58
2021/11/09 01:23:59;;;;;;;5.22;1.95;;;;;;;;;;5129399;27;20015;-61
2021/11/09 01:26:26;;;;;;;5.30;2.05;;;;;;;;;;5135886;27;20444;-59
2021/11/09 01:28:54;;;;;;;4.93;1.92;;;;;;;;;;5124377;27;20027;-58
2021/11/09 01:31:20;;;;;;;3.08;1.98;;;;;;;;;;5115108;27;20020;-57
2021/11/09 01:33:47;;;;;;;4.15;2.08;;;;;;;;;;5127381;27;20072;-58
2021/11/09 01:36:13;;;;;;;4.07;1.90;;;;;;;;;;5135218;27;20126;-57
2021/11/09 01:38:39;;;;;;;3.38;2.15;;;;;;;;;;5134287;27;20093;-57
2021/11/09 01:41:08;;;;;;;2.97;1.98;;;;;;;;;;5134209;27;20023;-57
2021/11/09 01:43:35;;;;;;;3.45;1.98;;;;;;;;;;5126268;27;20020;-58
2021/11/09 01:46:01;;;;;;;3.30;2.00;;;;;;;;;;5114313;28;20091;-58
2021/11/09 01:48:28;;;;;;;4.13;2.45;;;;;;;;;;5116725;27;20035;-57
2021/11/09 01:50:56;;;;;;;2.95;1.77;;;;;;;;;;5114329;28;20063;-58
2021/11/09 01:53:23;;;;;;;4.57;1.98;;;;;;;;;;5116082;27;20015;-57
2021/11/09 01:55:50;;;;;;;4.57;2.13;;;;;;;;;;5126201;27;20472;-61
2021/11/09 01:58:17;;;;;;;4.88;2.05;;;;;;;;;;5129871;27;20036;-57
2021/11/09 02:00:55;;;;;;;3.90;1.88;;;;;;;;;;5115004;27;20011;-58
2021/11/09 02:03:22;;;;;;;5.43;2.00;;;;;;;;;;5114763;28;20120;-57
2021/11/09 02:05:49;;;;;;;3.53;1.92;;;;;;;;;;5115188;27;20026;-58
2021/11/09 02:08:16;;;;;;;3.75;2.05;;;;;;;;;;5129360;27;20026;-58
2021/11/09 02:10:43;;;;;;;3.25;1.83;;;;;;;;;;5114567;28;20482;-57
2021/11/09 02:13:09;;;;;;;3.95;1.77;;;;;;;;;;5119777;27;20023;-57
2021/11/09 02:15:36;;;;;;;3.63;2.20;;;;;;;;;;5133609;27;20341;-58
2021/11/09 02:18:03;;;;;;;3.13;1.85;;;;;;;;;;5129534;27;20022;-57
2021/11/09 02:20:30;;;;;;;2.95;1.85;;;;;;;;;;5135174;27;20058;-57
2021/11/09 02:22:57;;;;;;;3.30;2.00;;;;;;;;;;5120217;27;20011;-58
2021/11/09 02:25:24;;;;;;;2.80;1.90;;;;;;;;;;5133796;27;20045;-57
2021/11/09 02:27:51;;;;;;;2.72;2.28;;;;;;;;;;5133611;27;20030;-61
2021/11/09 02:30:19;;;;;;;3.03;1.73;;;;;;;;;;5113818;27;20020;-57
2021/11/09 02:32:45;;;;;;;3.22;2.10;;;;;;;;;;5114095;28;20035;-58
2021/11/09 02:35:13;;;;;;;2.95;2.15;;;;;;;;;;5125367;27;20046;-57
2021/11/09 02:37:40;;;;;;;3.30;1.85;;;;;;;;;;5134415;27;20023;-57
2021/11/09 02:40:07;;;;;;;3.38;2.13;;;;;;;;;;5115248;27;20485;-58
2021/11/09 02:42:35;;;;;;;3.65;2.13;;;;;;;;;;5113923;28;20169;-57
2021/11/09 02:45:07;;;;;;;3.13;2.28;;;;;;;;;;5122432;27;20023;-57
2021/11/09 02:47:53;;;;;;;3.83;1.80;;;;;;;;;;5134233;27;20105;-57
2021/11/09 02:50:23;;;;;;;3.45;2.08;;;;;;;;;;5120372;27;20023;-57
2021/11/09 02:52:56;;;;;;;2.25;1.60;;;;;;;;;;5134078;27;20050;-57
2021/11/09 02:55:36;;;;;;;3.40;2.00;;;;;;;;;;5119702;27;20094;-57
2021/11/09 03:00:37;;;;;;;3.17;1.85;;;;;;;;;;5131479;27;20035;-58
2021/11/09 03:03:07;;;;;;;4.07;2.53;;;;;;;;;;5112783;27;20020;-57
2021/11/09 03:05:45;;;;;;;3.17;2.03;;;;;;;;;;5113625;28;20032;-57
2021/11/09 03:11:15;;;;;;;5.50;2.10;;;;;;;;;;5069177;27;20166;-56
2021/11/09 03:13:47;;;;;;;4.65;2.08;;;;;;;;;;5130490;27;20011;-57
2021/11/09 03:16:13;;;;;;;2.97;1.83;;;;;;;;;;5112699;28;20074;-57
2021/11/09 03:18:45;;;;;;;4.38;2.13;;;;;;;;;;5113235;27;20027;-58
2021/11/09 03:45:32;;;;;;;4.25;2.20;;;;;;;;;;5092053;28;20023;-58
2021/11/09 03:48:09;;;;;;;3.70;2.10;;;;;;;;;;5091560;28;20023;-58
2021/11/09 03:50:37;;;;;;;4.10;2.55;;;;;;;;;;5076906;28;20477;-57
2021/11/09 03:55:45;;;;;;;5.03;1.90;;;;;;;;;;5076548;28;20028;-57
2021/11/09 03:58:25;;;;;;;3.20;2.17;;;;;;;;;;5072362;28;20035;-57
2021/11/09 04:01:03;;;;;;;3.50;2.10;;;;;;;;;;5082807;28;20028;-58
2021/11/09 04:03:57;;;;;;;4.57;2.13;;;;;;;;;;5091572;28;20048;-59
2021/11/09 04:06:40;;;;;;;2.92;1.95;;;;;;;;;;5092607;28;20353;-57
2021/11/09 04:09:14;;;;;;;2.28;1.75;;;;;;;;;;5087133;28;20369;-58
2021/11/09 04:12:01;;;;;;;3.22;2.17;;;;;;;;;;5081880;28;20413;-58
2021/11/09 04:17:08;;;;;;;3.22;1.80;;;;;;;;;;5071760;28;20418;-61
2021/11/09 05:10:49;;;;;;;2.88;1.65;;;;;;;;;;5116081;27;20416;-57
2021/11/09 05:13:15;;;;;;;3.17;2.10;;;;;;;;;;5120343;27;20579;-57
2021/11/09 05:15:41;;;;;;;3.92;1.83;;;;;;;;;;5136617;27;20019;-57
2021/11/09 05:18:07;;;;;;;2.22;1.45;;;;;;;;;;5134876;27;20026;-57
2021/11/09 05:20:33;;;;;;;3.30;1.95;;;;;;;;;;5123022;27;20491;-59
2021/11/09 05:22:59;;;;;;;2.58;1.67;;;;;;;;;;5128385;27;20042;-61
2021/11/09 05:25:26;;;;;;;3.45;1.80;;;;;;;;;;5123633;27;20022;-57
2021/11/09 05:27:52;;;;;;;2.70;1.52;;;;;;;;;;5120282;27;20035;-57
2021/11/09 05:30:18;;;;;;;3.53;1.70;;;;;;;;;;5123924;27;20023;-56
2021/11/09 05:32:45;;;;;;;2.97;1.95;;;;;;;;;;5129446;27;20046;-57
2021/11/09 05:35:11;;;;;;;3.80;1.60;;;;;;;;;;5124463;27;20689;-57
2021/11/09 05:37:44;;;;;;;2.78;1.67;;;;;;;;;;5135672;27;20107;-58
2021/11/09 05:40:11;;;;;;;3.70;2.08;;;;;;;;;;5133793;27;20421;-57
2021/11/09 05:42:37;;;;;;;3.40;1.63;;;;;;;;;;5135011;27;20452;-58
2021/11/09 05:45:04;;;;;;;2.35;1.67;;;;;;;;;;5134426;27;20018;-57
2021/11/09 05:47:31;;;;;;;4.25;1.73;;;;;;;;;;5135258;27;20030;-57
2021/11/09 05:50:04;;;;;;;2.92;1.77;;;;;;;;;;5132453;27;20027;-63
2021/11/09 05:52:30;;;;;;;2.67;2.00;;;;;;;;;;5124671;27;20368;-58
2021/11/09 05:54:56;;;;;;;2.75;1.42;;;;;;;;;;5125318;27;20023;-61
2021/11/09 05:57:22;;;;;;;3.75;1.40;;;;;;;;;;5114234;28;20020;-57
2021/11/09 05:59:48;;;;;;;2.58;1.55;;;;;;;;;;5120644;27;20364;-58
2021/11/09 06:02:15;;;;;;;2.90;1.77;;;;;;;;;;5122472;27;20026;-58
2021/11/09 06:04:41;;;;;;;5.05;2.05;;;;;;;;;;5126299;27;20019;-58
2021/11/09 06:07:07;;;;;;;3.65;1.60;;;;;;;;;;5131381;27;20031;-59
2021/11/09 06:09:33;;;;;;;2.50;1.48;;;;;;;;;;5124065;27;20023;-58
2021/11/09 06:12:01;;;;;;;2.70;1.35;;;;;;;;;;5123948;27;20590;-62
2021/11/09 06:14:27;;;;;;;3.17;1.42;;;;;;;;;;5125277;27;20019;-59
2021/11/09 06:16:54;;;;;;;2.50;1.38;;;;;;;;;;5123198;27;20018;-58
2021/11/09 06:19:20;;;;;;;3.38;1.80;;;;;;;;;;5124107;27;20762;-58
2021/11/09 06:21:46;;;;;;;2.83;1.83;;;;;;;;;;5123856;27;20020;-57
2021/11/09 06:24:12;;;;;;;2.65;1.73;;;;;;;;;;5124453;27;20100;-58
2021/11/09 06:26:38;;;;;;;3.65;1.63;;;;;;;;;;5130928;27;20533;-58
2021/11/09 06:29:06;;;;;;;2.53;1.60;;;;;;;;;;5122159;27;20037;-58
2021/11/09 06:31:32;;;;;;;3.33;1.42;;;;;;;;;;5114103;28;20069;-58
2021/11/09 06:33:58;;;;;;;1.73;1.40;;;;;;;;;;5095989;28;20088;-62
2021/11/09 06:36:24;;;;;;;2.90;1.75;;;;;;;;;;5120120;27;20111;-59
2021/11/09 06:38:50;;;;;;;4.13;1.52;;;;;;;;;;5115187;27;20027;-59
2021/11/09 06:41:16;;;;;;;2.20;1.58;;;;;;;;;;5114198;27;20034;-59
2021/11/09 06:43:42;;;;;;;5.53;2.20;;;;;;;;;;5113972;28;20077;-57
2021/11/09 06:46:09;;;;;;;4.25;2.03;;;;;;;;;;5113191;28;20098;-57
2021/11/09 06:48:35;;;;;;;3.25;1.45;;;;;;;;;;5115407;27;20177;-58
2021/11/09 06:51:03;;;;;;;3.60;1.75;;;;;;;;;;5113325;28;20019;-59
2021/11/09 06:53:29;;;;;;;5.40;2.17;;;;;;;;;;5114200;28;20019;-62
2021/11/09 06:55:55;;;;;;;4.97;2.08;;;;;;;;;;5114101;28;20061;-59
2021/11/09 06:58:21;;;;;;;6.57;1.80;;;;;;;;;;5118951;27;20091;-60
2021/11/09 07:00:47;;;;;;;2.97;1.70;;;;;;;;;;5134642;27;20499;-61
2021/11/09 07:03:13;;;;;;;4.80;2.03;;;;;;;;;;5131249;27;20015;-59
2021/11/09 07:05:40;;;;;;;4.30;1.67;;;;;;;;;;5134541;27;20098;-58
2021/11/09 07:08:06;;;;;;;4.00;1.70;;;;;;;;;;5129953;27;20020;-59
2021/11/09 07:10:32;;;;;;;5.03;2.20;;;;;;;;;;5114873;27;20106;-59
2021/11/09 07:12:58;;;;;;;4.38;1.65;;;;;;;;;;5113857;28;20023;-59
2021/11/09 07:15:24;;;;;;;3.60;1.70;;;;;;;;;;5113670;28;20019;-58
2021/11/09 07:17:50;;;;;;;5.18;2.47;;;;;;;;;;5115620;27;20034;-58
2021/11/09 07:20:17;;;;;;;8.63;3.08;;;;;;;;;;5133209;27;20336;-58
2021/11/09 07:22:44;;;;;;;7.72;2.90;;;;;;;;;;5130333;27;20019;-57
2021/11/09 07:25:10;;;;;;;4.65;2.65;;;;;;;;;;5133322;27;20072;-57
2021/11/09 07:27:37;;;;;;;7.03;3.42;;;;;;;;;;5123288;27;20170;-58
2021/11/09 07:30:04;;;;;;;7.10;3.47;;;;;;;;;;5112993;28;20028;-59
2021/11/09 07:32:30;;;;;;;13.05;3.85;;;;;;;;;;5114378;27;20067;-59
2021/11/09 07:34:56;;;;;;;8.25;2.72;;;;;;;;;;5112589;27;20114;-59
2021/11/09 07:37:23;;;;;;;7.00;2.83;;;;;;;;;;5126605;27;20015;-58
2021/11/09 07:39:49;;;;;;;5.97;2.40;;;;;;;;;;5133900;27;20019;-58
2021/11/09 07:42:17;;;;;;;7.05;2.58;;;;;;;;;;5130607;27;20023;-58
2021/11/09 07:44:44;;;;;;;8.15;2.63;;;;;;;;;;5130737;27;20019;-58
2021/11/09 07:47:10;;;;;;;4.93;2.33;;;;;;;;;;5130812;27;20039;-58
2021/11/09 07:49:37;;;;;;;4.60;1.90;;;;;;;;;;5133136;27;20110;-58
2021/11/09 07:52:04;;;;;;;6.13;3.08;;;;;;;;;;5118640;27;20028;-60
2021/11/09 07:54:34;;;;;;;4.25;2.22;;;;;;;;;;5112754;28;20032;-58
2021/11/09 07:57:09;;;;;;;5.90;2.65;;;;;;;;;;5113411;27;20114;-59
2021/11/09 07:59:57;;;;;;;4.30;2.17;;;;;;;;;;5113777;27;20470;-59
2021/11/09 08:04:55;;;;;;;6.38;2.30;;;;;;;;;;5125430;27;20293;-58
2021/11/09 08:07:24;;;;;;;4.07;1.95;;;;;;;;;;5132108;27;20766;-58
2021/11/09 08:09:50;;;;;;;5.55;2.40;;;;;;;;;;5133067;27;20071;-58
2021/11/09 08:12:16;;;;;;;5.75;2.05;;;;;;;;;;5132366;27;20034;-58
2021/11/09 08:14:42;;;;;;;4.07;1.95;;;;;;;;;;5132638;27;20019;-59
2021/11/09 08:17:08;;;;;;;5.75;2.15;;;;;;;;;;5132117;27;20042;-59
2021/11/09 08:19:34;;;;;;;3.83;2.13;;;;;;;;;;5116025;27;20058;-58
2021/11/09 08:22:01;;;;;;;4.28;2.15;;;;;;;;;;5112157;28;20020;-58
2021/11/09 08:24:28;;;;;;;3.55;2.17;;;;;;;;;;5111852;28;20011;-59
2021/11/09 08:26:55;;;;;;;4.88;2.20;;;;;;;;;;5113698;28;20034;-58
2021/11/09 08:29:27;;;;;;;4.90;2.45;;;;;;;;;;5111398;28;20045;-58
2021/11/09 08:31:57;;;;;;;4.78;2.17;;;;;;;;;;5112401;28;20022;-58
2021/11/09 08:34:24;;;;;;;5.97;2.22;;;;;;;;;;5125879;28;20023;-59
2021/11/09 08:36:50;;;;;;;3.67;2.45;;;;;;;;;;5132646;28;20108;-58
2021/11/09 08:39:21;;;;;;;4.90;2.58;;;;;;;;;;5112736;28;20035;-58
2021/11/09 08:42:11;;;;;;;3.85;2.25;;;;;;;;;;5108393;28;20444;-58
2021/11/09 08:45:11;;;;;;;4.97;2.00;;;;;;;;;;5112033;28;20024;-58
2021/11/09 08:47:31;;;;;;;4.63;2.15;;;;;;;;;;5124049;28;20024;-58
2021/11/09 08:49:59;;;;;;;4.97;2.83;;;;;;;;;;5114416;28;20055;-59
2021/11/09 08:52:28;;;;;;;4.57;2.40;;;;;;;;;;5112010;28;20108;-58
2021/11/09 09:05:53;;;;;;;3.83;2.15;;;;;;;;;;5122365;28;20034;-58
2021/11/09 09:08:19;;;;;;;4.45;2.42;;;;;;;;;;5131123;28;20011;-58
2021/11/09 09:10:46;;;;;;;4.30;2.55;;;;;;;;;;5132827;28;20087;-58
2021/11/09 09:13:13;;;;;;;4.60;2.60;;;;;;;;;;5132249;28;20015;-58
2021/11/09 09:15:39;;;;;;;4.53;2.15;;;;;;;;;;5131408;28;20413;-58
2021/11/09 09:18:11;;;;;;;4.60;2.50;;;;;;;;;;5116333;28;20046;-60
2021/11/09 09:20:42;;;;;;;4.25;2.72;;;;;;;;;;5111645;28;20026;-59
2021/11/09 09:23:16;;;;;;;3.95;2.03;;;;;;;;;;5127600;28;20511;-59
2021/11/09 09:28:39;;;;;;;3.17;2.00;;;;;;;;;;5122074;27;20048;-58
2021/11/09 09:55:40;;;;;;;5.53;2.85;;;;;;;;;;5114089;28;20464;-58
2021/11/09 09:58:13;;;;;;;4.53;2.85;;;;;;;;;;5114709;28;20019;-60
2021/11/09 10:00:40;;;;;;;3.63;2.40;;;;;;;;;;5119010;27;20023;-58
2021/11/09 10:03:13;;;;;;;4.05;2.38;;;;;;;;;;5124677;27;20020;-60
2021/11/09 10:05:42;;;;;;;5.20;2.78;;;;;;;;;;5114319;28;20403;-58
2021/11/09 10:08:10;;;;;;;3.83;2.60;;;;;;;;;;5114527;28;20020;-58
2021/11/09 10:10:36;;;;;;;5.30;2.53;;;;;;;;;;5114888;28;20397;-58
2021/11/09 10:13:04;;;;;;;5.68;2.85;;;;;;;;;;5116507;27;20034;-58
2021/11/09 10:15:32;;;;;;;3.67;2.13;;;;;;;;;;5114850;27;20066;-58
2021/11/09 10:18:00;;;;;;;3.55;2.00;;;;;;;;;;5115828;27;20068;-58
2021/11/09 10:20:29;;;;;;;3.33;2.53;;;;;;;;;;5113825;28;20032;-58
2021/11/09 10:23:06;;;;;;;3.97;2.30;;;;;;;;;;5129468;27;20098;-59
2021/11/09 10:25:33;;;;;;;2.80;1.98;;;;;;;;;;5133721;27;20460;-58
2021/11/09 10:28:04;;;;;;;3.40;2.05;;;;;;;;;;5130409;27;20480;-58
2021/11/09 10:30:33;;;;;;;4.57;2.47;;;;;;;;;;5133978;27;20034;-58
2021/11/09 10:32:59;;;;;;;6.63;2.28;;;;;;;;;;5135007;27;20102;-58
2021/11/09 10:35:25;;;;;;;4.47;1.90;;;;;;;;;;5133306;27;20035;-58
2021/11/09 10:37:53;;;;;;;4.63;2.47;;;;;;;;;;5131340;27;20098;-58
2021/11/09 10:40:29;;;;;;;2.78;1.50;;;;;;;;;;5115393;27;20023;-59
2021/11/09 10:42:58;;;;;;;3.85;1.95;;;;;;;;;;5134746;27;20409;-58
2021/11/09 10:45:26;;;;;;;4.57;2.03;;;;;;;;;;5124995;27;20093;-59
2021/11/09 10:47:53;;;;;;;4.85;2.28;;;;;;;;;;5113999;28;20015;-58
2021/11/09 10:50:26;;;;;;;5.70;1.70;;;;;;;;;;5127080;27;20474;-58
2021/11/09 10:53:29;;;;;;;5.45;1.83;;;;;;;;;;5134549;27;20444;-58
2021/11/09 11:03:58;;;;;;;2.50;1.75;;;;;;;;;;5134121;27;20152;-58
2021/11/09 11:06:25;;;;;;;3.55;1.80;;;;;;;;;;5130990;27;20022;-59
2021/11/09 11:08:56;;;;;;;2.90;1.70;;;;;;;;;;5133952;27;20026;-58
2021/11/09 11:11:27;;;;;;;4.50;1.88;;;;;;;;;;5132924;27;20483;-58
2021/11/09 11:14:12;;;;;;;3.00;2.05;;;;;;;;;;5133908;27;20443;-58
2021/11/09 11:16:38;;;;;;;3.25;1.73;;;;;;;;;;5132364;27;20368;-58
2021/11/09 11:19:05;;;;;;;3.20;1.75;;;;;;;;;;5133961;27;20019;-58
2021/11/09 11:21:31;;;;;;;2.80;1.48;;;;;;;;;;5128290;27;20035;-58
2021/11/09 11:23:57;;;;;;;3.10;2.17;;;;;;;;;;5128501;27;20464;-60
2021/11/09 11:26:23;;;;;;;3.72;2.25;;;;;;;;;;5121233;27;20031;-59
2021/11/09 11:28:51;;;;;;;1.83;1.27;;;;;;;;;;5115937;27;20039;-58
2021/11/09 11:31:18;;;;;;;3.35;2.33;;;;;;;;;;5131130;27;20029;-59
2021/11/09 11:33:44;;;;;;;2.45;1.90;;;;;;;;;;5130615;27;20011;-59
2021/11/09 11:36:12;;;;;;;3.13;1.83;;;;;;;;;;5116723;27;20095;-60
2021/11/09 11:38:43;;;;;;;2.42;1.55;;;;;;;;;;5126978;27;20075;-60
2021/11/09 11:41:10;;;;;;;6.15;2.72;;;;;;;;;;5131714;27;20468;-59
2021/11/09 11:43:43;;;;;;;3.10;1.60;;;;;;;;;;5134492;27;20019;-59
2021/11/09 11:46:13;;;;;;;4.10;1.55;;;;;;;;;;5110601;27;20069;-59
2021/11/09 11:48:58;;;;;;;3.53;1.60;;;;;;;;;;5113444;27;20019;-58
2021/11/09 11:51:25;;;;;;;3.67;1.88;;;;;;;;;;5112526;28;20016;-58
2021/11/09 11:53:54;;;;;;;4.15;2.22;;;;;;;;;;5113039;28;20123;-59
2021/11/09 11:56:21;;;;;;;2.95;1.83;;;;;;;;;;5112721;28;20080;-59
2021/11/09 11:58:47;;;;;;;5.53;1.92;;;;;;;;;;5127265;27;20037;-58
2021/11/09 12:01:13;;;;;;;2.65;1.70;;;;;;;;;;5120056;27;20031;-59
2021/11/09 12:03:39;;;;;;;2.13;1.73;;;;;;;;;;5122274;27;20381;-58
2021/11/09 12:06:17;;;;;;;2.00;1.35;;;;;;;;;;5113656;28;20050;-58
2021/11/09 12:08:45;;;;;;;3.10;1.48;;;;;;;;;;5124959;27;20364;-58
2021/11/09 12:11:23;;;;;;;2.53;1.40;;;;;;;;;;5132201;27;20023;-59
2021/11/09 12:13:58;;;;;;;1.92;1.45;;;;;;;;;;5133226;27;20184;-59
2021/11/09 12:16:39;;;;;;;4.22;1.40;;;;;;;;;;5116575;27;20406;-58
2021/11/09 12:19:05;;;;;;;3.40;1.65;;;;;;;;;;5122428;27;20102;-58
2021/11/09 12:21:35;;;;;;;3.35;1.25;;;;;;;;;;5129306;27;20114;-58
2021/11/09 12:24:20;;;;;;;3.83;1.70;;;;;;;;;;5112842;28;20560;-58
2021/11/09 12:26:47;;;;;;;5.90;2.10;;;;;;;;;;5112572;28;20031;-59
2021/11/09 12:29:32;;;;;;;2.92;1.73;;;;;;;;;;5121300;28;20427;-58
2021/11/09 12:32:17;;;;;;;3.35;1.50;;;;;;;;;;5114464;28;20368;-59
2021/11/09 12:35:24;;;;;;;2.28;1.25;;;;;;;;;;5132265;28;20011;-58
2021/11/09 12:38:02;;;;;;;4.72;2.13;;;;;;;;;;5028967;28;20141;-59
2021/11/09 12:40:39;;;;;;;5.15;1.60;;;;;;;;;;5027766;28;20160;-59
2021/11/09 12:43:22;;;;;;;4.93;2.20;;;;;;;;;;5028914;28;20033;-59
2021/11/09 12:45:50;;;;;;;1.52;1.33;;;;;;;;;;5027623;28;20017;-59
2021/11/09 12:48:25;;;;;;;2.35;1.35;;;;;;;;;;5028573;28;20017;-59
2021/11/09 12:50:53;;;;;;;2.78;1.48;;;;;;;;;;5023733;28;20025;-58
2021/11/09 12:53:22;;;;;;;2.65;1.42;;;;;;;;;;5023032;28;20033;-59
2021/11/09 12:56:20;;;;;;;1.65;1.10;;;;;;;;;;5010759;28;20033;-58
2021/11/09 12:58:52;;;;;;;2.70;1.08;;;;;;;;;;5010311;28;20029;-58
2021/11/09 13:03:55;;;;;;;4.90;1.40;;;;;;;;;;5019958;28;20026;-58
2021/11/09 13:06:37;;;;;;;3.00;1.30;;;;;;;;;;5027432;28;20030;-58
2021/11/09 13:09:17;;;;;;;4.28;1.30;;;;;;;;;;5086535;28;20038;-58
2021/11/09 13:11:47;;;;;;;2.22;1.52;;;;;;;;;;5115697;28;20015;-58
2021/11/09 13:14:16;;;;;;;2.28;1.23;;;;;;;;;;5115860;27;20119;-58
2021/11/09 13:16:49;;;;;;;2.63;1.42;;;;;;;;;;5117168;27;20016;-59
2021/11/09 13:19:23;;;;;;;2.63;1.40;;;;;;;;;;5115399;28;20513;-58
2021/11/09 13:21:59;;;;;;;2.70;1.30;;;;;;;;;;5120507;27;20337;-58
2021/11/09 13:24:26;;;;;;;2.75;1.42;;;;;;;;;;5135110;27;20019;-58
2021/11/09 13:26:53;;;;;;;1.58;0.80;;;;;;;;;;5120223;27;20334;-58
2021/11/09 13:29:20;;;;;;;2.70;1.45;;;;;;;;;;5115869;27;20039;-59
2021/11/09 13:31:46;;;;;;;1.65;1.17;;;;;;;;;;5115452;28;20024;-59
2021/11/09 13:34:12;;;;;;;1.25;0.90;;;;;;;;;;5115039;27;20019;-58
2021/11/09 13:36:38;;;;;;;2.50;1.27;;;;;;;;;;5131233;27;20438;-58
2021/11/09 13:39:05;;;;;;;3.25;1.30;;;;;;;;;;5127756;27;20019;-59
2021/11/09 13:41:31;;;;;;;3.00;1.40;;;;;;;;;;5118554;27;20019;-59
2021/11/09 13:44:00;;;;;;;2.03;1.02;;;;;;;;;;5115736;27;20107;-59
2021/11/09 13:46:28;;;;;;;2.17;0.95;;;;;;;;;;5114501;27;20368;-58
2021/11/09 13:48:56;;;;;;;1.38;1.10;;;;;;;;;;5117798;27;20031;-58
2021/11/09 13:51:25;;;;;;;1.88;1.10;;;;;;;;;;5114557;28;20020;-58
2021/11/09 13:53:54;;;;;;;1.70;1.00;;;;;;;;;;5129699;27;20046;-59
2021/11/09 13:56:25;;;;;;;1.95;0.90;;;;;;;;;;5119800;27;20019;-59
2021/11/09 13:59:08;;;;;;;3.35;1.40;;;;;;;;;;5125220;27;20106;-59
2021/11/09 14:01:36;;;;;;;2.55;1.17;;;;;;;;;;5113882;28;20020;-59
2021/11/09 14:04:22;;;;;;;3.00;0.90;;;;;;;;;;5114434;28;20449;-58
2021/11/09 14:13:16;;;;;;;1.30;0.90;;;;;;;;;;5134748;27;20031;-58
2021/11/09 14:17:39;;;;;;;5.57;1.25;;;;;;;;;;5132641;27;20025;-59
2021/11/09 14:20:10;;;;;;;1.85;1.08;;;;;;;;;;5128006;27;20459;-59
2021/11/09 14:22:37;;;;;;;2.05;0.80;;;;;;;;;;5124975;27;20587;-59
2021/11/09 14:25:05;;;;;;;3.55;1.20;;;;;;;;;;5134603;27;20019;-59
2021/11/09 14:27:36;;;;;;;1.88;1.02;;;;;;;;;;5133997;27;20023;-58
2021/11/09 14:30:05;;;;;;;1.67;1.15;;;;;;;;;;5134864;27;20058;-58
2021/11/09 14:32:33;;;;;;;1.92;0.80;;;;;;;;;;5129932;27;20060;-58
2021/11/09 14:35:09;;;;;;;1.40;0.82;;;;;;;;;;5114455;28;20015;-58
2021/11/09 14:37:53;;;;;;;2.05;1.15;;;;;;;;;;5113871;28;20035;-59
2021/11/09 14:40:22;;;;;;;3.38;1.25;;;;;;;;;;5113901;28;20028;-58
2021/11/09 14:47:55;;;;;;;2.00;1.25;;;;;;;;;;5130422;27;20027;-59
2021/11/09 14:53:17;;;;;;;1.55;0.93;;;;;;;;;;5082577;28;20023;-59
2021/11/09 14:55:49;;;;;;;2.10;1.17;;;;;;;;;;5114506;27;20532;-59
2021/11/09 14:58:30;;;;;;;3.92;1.55;;;;;;;;;;5113552;28;20023;-59
2021/11/09 15:01:02;;;;;;;2.67;0.90;;;;;;;;;;5113666;28;20495;-60
2021/11/09 15:03:31;;;;;;;;;;;;;;;;;;5121464;27;20046;-59
2021/11/09 15:06:00;;;;;;;4.03;1.00;;;;;;;;;;5125880;27;20285;-59
2021/11/09 15:08:40;;;;;;;2.08;1.15;;;;;;;;;;5113450;28;20027;-58
2021/11/09 15:11:27;;;;;;;4.03;0.80;;;;;;;;;;5125584;27;20409;-59
2021/11/09 15:30:26;;;;;;;2.90;1.40;;;;;;;;;;5112565;28;20031;-59
2021/11/09 15:32:53;;;;;;;3.72;1.58;;;;;;;;;;5113595;28;20016;-62
2021/11/09 15:35:27;;;;;;;4.93;2.00;;;;;;;;;;5113636;27;20044;-64
2021/11/09 15:37:55;;;;;;;2.85;1.58;;;;;;;;;;5134031;27;20388;-60
2021/11/09 15:40:22;;;;;;;5.85;1.48;;;;;;;;;;5121412;27;20409;-58
2021/11/09 15:42:49;;;;;;;3.63;1.63;;;;;;;;;;5113270;28;20370;-58
2021/11/09 15:45:15;;;;;;;6.20;1.88;;;;;;;;;;5114352;27;20047;-58
2021/11/09 15:47:42;;;;;;;4.78;1.17;;;;;;;;;;5119514;27;20494;-58
2021/11/09 15:50:09;;;;;;;7.07;1.83;;;;;;;;;;5113275;28;20028;-58
2021/11/09 15:52:36;;;;;;;4.95;2.35;;;;;;;;;;5112484;28;20024;-58
2021/11/09 15:55:04;;;;;;;3.72;2.40;;;;;;;;;;5113121;28;20053;-59
2021/11/09 15:57:30;;;;;;;6.43;2.42;;;;;;;;;;5117430;27;20041;-65
2021/11/09 15:59:56;;;;;;;5.65;2.35;;;;;;;;;;5133576;27;20030;-67
2021/11/09 16:02:23;;;;;;;4.13;1.70;;;;;;;;;;5132811;27;20011;-63
2021/11/09 16:04:49;;;;;;;8.73;2.25;;;;;;;;;;5131755;27;20076;-64
2021/11/09 16:07:17;;;;;;;7.25;2.67;;;;;;;;;;5131797;27;20037;-67
2021/11/09 16:09:49;;;;;;;3.88;1.90;;;;;;;;;;5112364;28;20027;-66
2021/11/09 16:12:20;;;;;;;4.15;2.03;;;;;;;;;;5118922;27;20451;-62
2021/11/09 16:14:46;;;;;;;6.47;2.05;;;;;;;;;;5128224;27;20055;-62
2021/11/09 16:17:13;;;;;;;6.97;2.08;;;;;;;;;;5131679;27;20027;-64
2021/11/09 16:19:39;;;;;;;8.05;2.40;;;;;;;;;;5132528;27;20400;-64
2021/11/09 16:22:09;;;;;;;6.60;2.10;;;;;;;;;;5125697;27;20016;-65
2021/11/09 16:24:35;;;;;;;5.80;2.40;;;;;;;;;;5118909;28;20095;-62
2021/11/09 16:27:01;;;;;;;3.97;2.00;;;;;;;;;;5125606;28;20019;-64
2021/11/09 16:29:46;;;;;;;3.28;2.00;;;;;;;;;;5132836;28;20030;-65
2021/11/09 16:32:14;;;;;;;9.10;2.67;;;;;;;;;;5118799;28;20038;-63
2021/11/09 16:34:43;;;;;;;6.53;2.53;;;;;;;;;;5119257;27;20330;-65
2021/11/09 16:37:09;;;;;;;7.13;1.85;;;;;;;;;;5137630;27;20480;-65
2021/11/09 16:39:45;;;;;;;3.10;1.50;;;;;;;;;;5136689;27;20535;-65
2021/11/09 16:42:11;;;;;;;6.63;1.92;;;;;;;;;;5126401;27;20364;-65
2021/11/09 16:44:39;;;;;;;5.07;1.88;;;;;;;;;;5116290;28;20015;-65
2021/11/09 16:47:05;;;;;;;5.97;1.58;;;;;;;;;;5117045;28;20452;-64
2021/11/09 16:52:04;;;;;;;9.63;2.15;;;;;;;;;;5117862;27;20028;-65
2021/11/09 16:54:35;;;;;;;4.32;1.95;;;;;;;;;;5116229;27;20026;-66
2021/11/09 18:20:19;;;;;;;3.72;1.38;;;;;;;;;;5114475;28;20026;-62
2021/11/09 18:22:48;;;;;;;3.67;1.60;;;;;;;;;;5112949;28;20051;-63
2021/11/09 18:25:16;;;;;;;3.88;1.30;;;;;;;;;;5115152;27;20031;-64
2021/11/09 18:27:43;;;;;;;5.45;1.23;;;;;;;;;;5096884;28;20034;-66
2021/11/09 18:30:12;;;;;;;3.70;1.38;;;;;;;;;;5114373;28;20104;-62
2021/11/09 18:32:38;;;;;;;5.20;1.40;;;;;;;;;;5113609;27;20019;-63
2021/11/09 18:35:05;;;;;;;3.08;1.58;;;;;;;;;;5113638;28;20019;-63
2021/11/09 18:37:31;;;;;;;5.18;1.92;;;;;;;;;;5113568;28;20020;-70
2021/11/09 18:39:58;;;;;;;5.35;1.52;;;;;;;;;;5134084;27;20031;-62
2021/11/09 18:42:28;;;;;;;4.70;2.03;;;;;;;;;;5134957;27;20068;-65
2021/11/09 18:44:55;;;;;;;3.63;1.30;;;;;;;;;;5134928;27;20097;-63
2021/11/09 18:47:22;;;;;;;2.75;0.98;;;;;;;;;;5133982;27;20016;-70
2021/11/09 18:49:48;;;;;;;4.70;1.27;;;;;;;;;;5133836;27;20034;-68
2021/11/09 18:52:14;;;;;;;3.72;1.30;;;;;;;;;;5113965;28;20030;-74
2021/11/09 18:54:40;;;;;;;4.35;1.80;;;;;;;;;;5113387;28;20034;-75
2021/11/09 18:57:07;;;;;;;7.38;1.45;;;;;;;;;;5113835;28;20081;-72
2021/11/09 18:59:34;;;;;;;7.95;2.05;;;;;;;;;;5112288;28;20035;-67
2021/11/09 19:02:00;;;;;;;4.43;1.38;;;;;;;;;;5113515;28;20363;-70
2021/11/09 19:04:27;;;;;;;5.40;1.70;;;;;;;;;;5113255;28;20037;-64
2021/11/09 19:06:53;;;;;;;2.50;1.20;;;;;;;;;;5113566;28;20020;-69
2021/11/09 19:09:19;;;;;;;3.80;1.45;;;;;;;;;;5113892;28;20028;-67
2021/11/09 19:11:47;;;;;;;2.83;1.30;;;;;;;;;;5113485;28;20460;-67